createdAt,value
2022-09-15T00:00:55.032Z,26.75
2022-09-15T00:03:23.872Z,26.62
2022-09-15T00:05:52.964Z,26.75
2022-09-15T00:08:19.609Z,27.00
2022-09-15T00:10:54.854Z,26.58
2022-09-15T00:13:22.240Z,27.02
2022-09-15T00:15:49.366Z,26.79
2022-09-15T00:18:16.136Z,26.50
2022-09-15T00:20:44.391Z,27.16
2022-09-15T00:23:12.798Z,27.17
2022-09-15T00:25:49.621Z,27.14
2022-09-15T00:28:18.898Z,26.58
2022-09-15T00:30:48.124Z,26.10
2022-09-15T00:33:16.425Z,26.04
2022-09-15T00:36:01.029Z,27.03
2022-09-15T00:38:27.661Z,26.60
2022-09-15T00:40:58.601Z,26.78
2022-09-15T00:43:43.944Z,26.85
2022-09-15T00:46:11.751Z,26.74
2022-09-15T00:48:42.189Z,26.66
2022-09-15T00:51:11.934Z,26.75
2022-09-15T00:53:38.778Z,26.34
2022-09-15T00:56:08.548Z,26.42
2022-09-15T00:58:46.495Z,26.59
2022-09-15T01:01:16.110Z,27.02
2022-09-15T01:03:42.651Z,26.78
2022-09-15T01:06:15.817Z,26.76
2022-09-15T01:08:54.280Z,26.83
2022-09-15T01:11:20.858Z,26.92
2022-09-15T01:13:47.424Z,26.75
2022-09-15T01:16:55.962Z,26.98
2022-09-15T01:19:40.619Z,27.09
2022-09-15T01:22:35.128Z,26.66
2022-09-15T01:25:08.521Z,27.00
2022-09-15T01:27:55.677Z,26.54
2022-09-15T01:30:24.276Z,27.07
2022-09-15T01:33:12.240Z,27.21
2022-09-15T01:35:55.391Z,26.54
2022-09-15T01:39:06.912Z,27.06
2022-09-15T01:42:00.107Z,26.91
2022-09-15T01:44:32.817Z,26.97
2022-09-15T01:47:06.460Z,27.07
2022-09-15T01:50:10.719Z,27.06
2022-09-15T01:52:43.046Z,26.89
2022-09-15T01:55:38.073Z,26.96
2022-09-15T01:58:05.126Z,26.76
2022-09-15T02:00:35.434Z,26.62
2022-09-15T02:03:08.484Z,26.65
2022-09-15T02:05:44.788Z,26.84
2022-09-15T02:08:20.806Z,26.79
2022-09-15T02:10:51.906Z,26.80
2022-09-15T02:13:24.315Z,26.84
2022-09-15T02:15:56.974Z,26.82
2022-09-15T02:18:44.617Z,26.70
2022-09-15T02:21:20.987Z,26.58
2022-09-15T02:23:57.162Z,26.49
2022-09-15T02:26:27.973Z,26.63
2022-09-15T02:28:57.740Z,26.61
2022-09-15T02:31:27.192Z,26.42
2022-09-15T02:33:59.207Z,26.10
2022-09-15T02:36:29.089Z,25.89
2022-09-15T02:39:03.600Z,26.57
2022-09-15T02:41:30.269Z,26.51
2022-09-15T02:43:56.777Z,26.41
2022-09-15T02:46:24.396Z,26.15
2022-09-15T02:48:50.916Z,26.61
2022-09-15T02:51:18.312Z,26.43
2022-09-15T02:53:46.385Z,25.66
2022-09-15T02:56:13.403Z,26.39
2022-09-15T02:58:39.907Z,26.32
2022-09-15T03:01:08.017Z,26.40
2022-09-15T03:03:35.096Z,26.51
2022-09-15T03:06:17.132Z,26.42
2022-09-15T03:08:55.545Z,26.11
2022-09-15T03:11:24.370Z,26.28
2022-09-15T03:14:02.636Z,26.31
2022-09-15T03:16:31.070Z,26.11
2022-09-15T03:19:02.058Z,26.29
2022-09-15T03:21:29.958Z,25.61
2022-09-15T03:23:57.721Z,26.14
2022-09-15T03:26:24.917Z,26.25
2022-09-15T03:28:51.486Z,26.34
2022-09-15T03:31:18.032Z,26.48
2022-09-15T03:33:44.658Z,26.47
2022-09-15T03:36:11.234Z,26.50
2022-09-15T03:38:37.912Z,26.50
2022-09-15T03:41:09.691Z,25.82
2022-09-15T03:43:36.990Z,25.42
2022-09-15T03:46:06.475Z,26.31
2022-09-15T03:48:35.495Z,26.22
2022-09-15T03:51:03.724Z,26.34
2022-09-15T03:53:35.178Z,26.25
2022-09-15T03:56:12.205Z,26.04
2022-09-15T03:58:38.708Z,26.08
2022-09-15T04:01:05.334Z,25.87
2022-09-15T04:03:32.540Z,25.85
2022-09-15T04:05:59.119Z,25.96
2022-09-15T04:08:25.693Z,25.76
2022-09-15T04:10:53.033Z,26.07
2022-09-15T04:13:19.710Z,25.89
2022-09-15T04:15:46.419Z,25.82
2022-09-15T04:18:12.997Z,25.65
2022-09-15T04:20:40.746Z,26.06
2022-09-15T04:23:07.240Z,26.03
2022-09-15T04:25:36.897Z,26.04
2022-09-15T04:28:05.647Z,25.99
2022-09-15T04:30:34.351Z,25.28
2022-09-15T04:33:01.027Z,25.97
2022-09-15T04:35:27.542Z,25.33
2022-09-15T04:37:54.718Z,26.12
2022-09-15T04:40:21.419Z,26.10
2022-09-15T04:42:48.016Z,25.85
2022-09-15T04:45:14.596Z,26.22
2022-09-15T04:47:41.170Z,26.12
2022-09-15T04:50:08.039Z,26.00
2022-09-15T04:52:36.647Z,25.97
2022-09-15T04:55:03.321Z,25.29
2022-09-15T04:57:33.710Z,25.50
2022-09-15T05:00:00.305Z,26.04
2022-09-15T05:02:26.894Z,25.89
2022-09-15T05:04:53.477Z,25.66
2022-09-15T05:07:20.548Z,26.23
2022-09-15T05:09:47.169Z,26.06
2022-09-15T05:12:14.189Z,26.22
2022-09-15T05:14:40.793Z,26.37
2022-09-15T05:17:07.432Z,25.84
2022-09-15T05:19:34.319Z,25.84
2022-09-15T05:22:01.148Z,26.37
2022-09-15T05:24:27.598Z,26.12
2022-09-15T05:26:54.152Z,24.90
2022-09-15T05:29:20.757Z,26.23
2022-09-15T05:31:47.479Z,26.03
2022-09-15T05:34:14.255Z,25.99
2022-09-15T05:36:40.792Z,25.41
2022-09-15T05:39:07.366Z,25.92
2022-09-15T05:41:33.945Z,25.58
2022-09-15T05:44:02.681Z,25.94
2022-09-15T05:46:30.205Z,25.03
2022-09-15T05:48:58.658Z,25.89
2022-09-15T05:51:25.655Z,25.84
2022-09-15T05:53:54.960Z,25.35
2022-09-15T05:56:22.048Z,25.24
2022-09-15T05:58:49.252Z,25.16
2022-09-15T06:01:42.310Z,25.78
2022-09-15T06:04:08.957Z,24.45
2022-09-15T06:06:38.853Z,25.72
2022-09-15T06:09:06.523Z,25.73
2022-09-15T06:11:42.327Z,25.68
2022-09-15T06:14:08.943Z,25.46
2022-09-15T06:16:36.021Z,25.66
2022-09-15T06:19:03.531Z,25.75
2022-09-15T06:21:32.012Z,25.52
2022-09-15T06:24:04.431Z,25.28
2022-09-15T06:26:31.042Z,25.70
2022-09-15T06:28:59.630Z,25.83
2022-09-15T06:31:28.160Z,25.74
2022-09-15T06:33:57.525Z,25.89
2022-09-15T06:36:28.514Z,25.00
2022-09-15T06:38:58.772Z,24.88
2022-09-15T06:41:25.628Z,25.40
2022-09-15T06:43:53.343Z,26.12
2022-09-15T06:46:23.460Z,26.10
2022-09-15T06:48:51.294Z,26.10
2022-09-15T06:51:22.730Z,26.21
2022-09-15T06:53:49.561Z,25.83
2022-09-15T06:56:18.645Z,26.01
2022-09-15T06:58:46.086Z,25.27
2022-09-15T07:01:15.071Z,25.53
2022-09-15T07:03:44.115Z,26.45
2022-09-15T07:06:12.287Z,26.44
2022-09-15T07:08:39.962Z,26.09
2022-09-15T07:11:07.618Z,26.21
2022-09-15T07:13:34.411Z,26.62
2022-09-15T07:16:04.349Z,26.77
2022-09-15T07:18:31.982Z,26.57
2022-09-15T07:21:00.723Z,26.93
2022-09-15T07:23:27.431Z,26.51
2022-09-15T07:26:05.050Z,26.91
2022-09-15T07:28:31.603Z,26.68
2022-09-15T07:30:58.151Z,26.86
2022-09-15T07:33:24.639Z,26.69
2022-09-15T07:35:51.479Z,26.88
2022-09-15T07:38:17.987Z,26.42
2022-09-15T07:40:46.079Z,26.79
2022-09-15T07:43:12.545Z,26.86
2022-09-15T07:45:42.796Z,26.76
2022-09-15T07:48:12.686Z,26.48
2022-09-15T07:50:39.241Z,26.99
2022-09-15T07:53:05.716Z,26.89
2022-09-15T07:55:32.937Z,26.77
2022-09-15T07:58:03.797Z,26.77
2022-09-15T08:00:30.755Z,26.90
2022-09-15T08:02:57.463Z,27.08
2022-09-15T08:05:28.685Z,27.10
2022-09-15T08:07:58.099Z,27.34
2022-09-15T08:10:30.605Z,27.37
2022-09-15T08:13:25.055Z,26.39
2022-09-15T08:15:54.224Z,27.17
2022-09-15T08:18:20.854Z,27.45
2022-09-15T08:20:47.390Z,26.96
2022-09-15T08:23:14.236Z,27.31
2022-09-15T08:25:40.882Z,27.19
2022-09-15T08:28:16.908Z,27.12
2022-09-15T08:30:46.136Z,26.91
2022-09-15T08:33:12.749Z,27.35
2022-09-15T08:35:39.292Z,27.58
2022-09-15T08:38:05.966Z,27.14
2022-09-15T08:40:37.619Z,27.18
2022-09-15T08:43:17.814Z,26.96
2022-09-15T08:45:55.885Z,27.46
2022-09-15T08:48:32.030Z,26.88
2022-09-15T08:51:04.248Z,27.20
2022-09-15T08:53:45.666Z,27.61
2022-09-15T08:56:17.303Z,27.71
2022-09-15T08:58:45.956Z,27.81
2022-09-15T09:01:32.479Z,27.88
2022-09-15T09:04:23.814Z,26.99
2022-09-15T09:07:21.913Z,27.51
2022-09-15T09:09:53.194Z,28.02
2022-09-15T09:12:19.753Z,28.02
2022-09-15T09:15:14.115Z,28.19
2022-09-15T09:18:09.287Z,28.34
2022-09-15T09:21:12.804Z,28.56
2022-09-15T09:24:05.621Z,28.50
2022-09-15T09:26:36.656Z,28.72
2022-09-15T09:29:28.401Z,27.74
2022-09-15T09:32:00.107Z,27.87
2022-09-15T09:34:39.785Z,28.31
2022-09-15T09:37:11.689Z,28.49
2022-09-15T09:39:38.422Z,28.52
2022-09-15T09:42:06.463Z,29.26
2022-09-15T09:44:33.987Z,29.08
2022-09-15T09:47:03.845Z,29.39
2022-09-15T09:49:34.580Z,29.48
2022-09-15T09:52:03.683Z,29.81
2022-09-15T09:54:33.065Z,29.61
2022-09-15T09:57:23.088Z,30.18
2022-09-15T09:59:51.049Z,30.20
2022-09-15T10:02:28.323Z,30.19
2022-09-15T10:05:16.023Z,29.55
2022-09-15T10:07:46.152Z,30.03
2022-09-15T10:10:25.914Z,29.38
2022-09-15T10:13:02.411Z,29.46
2022-09-15T10:15:34.174Z,29.53
2022-09-15T10:18:03.753Z,30.84
2022-09-15T10:20:35.615Z,30.24
2022-09-15T10:23:31.666Z,30.48
2022-09-15T10:26:19.873Z,31.33
2022-09-15T10:29:13.841Z,31.47
2022-09-15T10:31:40.779Z,31.12
2022-09-15T10:34:31.013Z,30.44
2022-09-15T10:37:55.116Z,31.12
2022-09-15T10:40:46.179Z,31.14
2022-09-15T10:43:32.909Z,31.90
2022-09-15T10:46:26.191Z,31.76
2022-09-15T10:49:23.320Z,31.99
2022-09-15T10:51:58.887Z,31.96
2022-09-15T10:54:41.666Z,30.68
2022-09-15T11:00:17.194Z,31.66
2022-09-15T11:03:32.818Z,31.11
2022-09-15T11:06:05.250Z,31.37
2022-09-15T11:08:51.420Z,31.29
2022-09-15T11:11:39.812Z,31.17
2022-09-15T11:14:22.689Z,31.09
2022-09-15T11:16:59.835Z,30.86
2022-09-15T11:19:48.496Z,31.06
2022-09-15T11:22:22.030Z,30.32
2022-09-15T11:24:55.009Z,30.06
2022-09-15T11:27:48.615Z,30.53
2022-09-15T11:30:23.509Z,30.58
2022-09-15T11:33:06.575Z,29.18
2022-09-15T11:35:49.895Z,30.39
2022-09-15T11:38:49.149Z,29.85
2022-09-15T11:41:18.882Z,30.38
2022-09-15T11:44:16.063Z,29.14
2022-09-15T11:46:58.722Z,30.42
2022-09-15T11:49:35.194Z,30.46
2022-09-15T11:52:11.207Z,29.99
2022-09-15T11:54:45.207Z,30.14
2022-09-15T11:57:19.005Z,29.37
2022-09-15T12:00:09.067Z,29.50
2022-09-15T12:02:49.002Z,28.92
2022-09-15T12:05:32.345Z,29.70
2022-09-15T12:08:27.555Z,29.75
2022-09-15T12:10:59.988Z,29.67
2022-09-15T12:13:27.036Z,29.46
2022-09-15T12:15:54.764Z,29.68
2022-09-15T12:18:40.815Z,29.01
2022-09-15T12:21:16.190Z,29.32
2022-09-15T12:23:55.540Z,29.29
2022-09-15T12:26:24.029Z,29.29
2022-09-15T12:28:58.116Z,29.29
2022-09-15T12:31:39.355Z,28.70
2022-09-15T12:34:25.926Z,27.34
2022-09-15T12:36:54.624Z,26.53
2022-09-15T12:39:23.267Z,25.80
2022-09-15T12:41:52.403Z,25.36
2022-09-15T12:44:29.085Z,24.78
2022-09-15T12:46:58.389Z,24.78
2022-09-15T12:49:33.116Z,24.72
2022-09-15T12:52:07.314Z,24.53
2022-09-15T12:54:46.734Z,23.67
2022-09-15T12:57:26.251Z,23.82
2022-09-15T13:00:23.297Z,24.17
2022-09-15T13:03:08.093Z,23.36
2022-09-15T13:05:46.353Z,23.81
2022-09-15T13:08:23.002Z,23.61
2022-09-15T13:11:09.611Z,23.82
2022-09-15T13:13:43.895Z,24.19
2022-09-15T13:16:48.979Z,24.36
2022-09-15T13:19:35.958Z,24.43
2022-09-15T13:22:11.643Z,24.57
2022-09-15T13:25:04.781Z,24.53
2022-09-15T13:27:52.237Z,25.03
2022-09-15T13:30:21.600Z,25.10
2022-09-15T13:32:54.197Z,25.18
2022-09-15T13:36:02.593Z,24.81
2022-09-15T13:38:52.438Z,25.51
2022-09-15T13:41:54.832Z,25.67
2022-09-15T13:44:38.187Z,25.53
2022-09-15T13:47:23.396Z,26.03
2022-09-15T13:50:09.082Z,26.02
2022-09-15T13:52:51.451Z,26.09
2022-09-15T13:55:24.131Z,26.17
2022-09-15T14:00:59.592Z,25.89
2022-09-15T14:03:39.831Z,26.15
2022-09-15T14:06:14.250Z,26.27
2022-09-15T14:08:43.326Z,26.14
2022-09-15T14:11:14.254Z,25.99
2022-09-15T14:13:47.830Z,26.05
2022-09-15T14:16:30.714Z,25.83
2022-09-15T14:18:58.789Z,25.31
2022-09-15T14:21:28.928Z,25.87
2022-09-15T14:24:20.483Z,25.85
2022-09-15T14:26:47.366Z,25.82
2022-09-15T14:29:19.571Z,25.68
2022-09-15T14:31:47.936Z,25.61
2022-09-15T14:34:20.521Z,25.75
2022-09-15T14:37:01.239Z,24.81
2022-09-15T14:39:30.727Z,25.69
2022-09-15T14:41:57.328Z,25.79
2022-09-15T14:47:27.888Z,25.83
2022-09-15T14:50:06.865Z,26.08
2022-09-15T14:52:38.816Z,26.25
2022-09-15T14:55:14.071Z,26.10
2022-09-15T14:57:46.219Z,25.25
2022-09-15T15:00:19.595Z,25.99
2022-09-15T15:03:09.026Z,26.31
2022-09-15T15:05:48.008Z,26.40
2022-09-15T15:08:28.203Z,26.33
2022-09-15T15:10:57.246Z,26.31
2022-09-15T15:13:24.151Z,26.14
2022-09-15T15:15:51.081Z,26.23
2022-09-15T15:18:31.696Z,26.17
2022-09-15T15:21:00.095Z,26.19
2022-09-15T15:23:27.447Z,26.26
2022-09-15T15:25:54.395Z,26.23
2022-09-15T15:28:37.672Z,26.21
2022-09-15T15:34:27.337Z,26.12
2022-09-15T15:37:03.724Z,26.18
2022-09-15T15:39:31.066Z,26.08
2022-09-15T15:42:05.516Z,26.14
2022-09-15T15:44:33.845Z,26.04
2022-09-15T15:47:03.246Z,26.35
2022-09-15T15:49:32.760Z,25.92
2022-09-15T15:52:00.961Z,26.46
2022-09-15T15:54:28.915Z,26.26
2022-09-15T15:56:55.749Z,26.45
2022-09-15T15:59:22.625Z,26.32
2022-09-15T16:01:55.808Z,26.26
2022-09-15T16:04:22.470Z,26.47
2022-09-15T16:06:49.682Z,26.47
2022-09-15T16:09:20.865Z,26.25
2022-09-15T16:11:47.921Z,26.57
2022-09-15T16:14:14.583Z,25.80
2022-09-15T16:16:41.211Z,26.43
2022-09-15T16:19:17.205Z,26.58
2022-09-15T16:21:43.826Z,26.63
2022-09-15T16:24:15.281Z,26.57
2022-09-15T16:26:44.017Z,26.64
2022-09-15T16:29:11.275Z,26.69
2022-09-15T16:31:38.496Z,25.99
2022-09-15T16:34:05.214Z,26.71
2022-09-15T16:36:36.324Z,26.46
2022-09-15T16:39:04.416Z,26.76
2022-09-15T16:41:31.800Z,26.71
2022-09-15T16:44:02.639Z,26.50
2022-09-15T16:46:29.870Z,26.43
2022-09-15T16:48:57.572Z,26.56
2022-09-15T16:51:29.818Z,26.59
2022-09-15T16:54:20.429Z,26.59
2022-09-15T16:56:47.365Z,26.53
2022-09-15T16:59:14.191Z,26.55
2022-09-15T17:01:41.165Z,26.44
2022-09-15T17:04:17.068Z,26.55
2022-09-15T17:06:43.913Z,26.28
2022-09-15T17:09:10.492Z,26.37
2022-09-15T17:11:38.541Z,25.91
2022-09-15T17:14:05.673Z,26.23
2022-09-15T17:16:32.284Z,26.24
2022-09-15T17:18:59.134Z,25.84
2022-09-15T17:21:25.766Z,26.08
2022-09-15T17:23:52.852Z,25.76
2022-09-15T17:26:21.866Z,25.99
2022-09-15T17:28:49.001Z,25.88
2022-09-15T17:31:20.443Z,25.87
2022-09-15T17:33:48.577Z,25.72
2022-09-15T17:36:16.167Z,25.74
2022-09-15T17:38:44.965Z,25.80
2022-09-15T17:41:22.414Z,25.59
2022-09-15T17:43:52.382Z,25.74
2022-09-15T17:46:19.214Z,25.34
2022-09-15T17:48:49.276Z,25.64
2022-09-15T17:51:17.459Z,25.60
2022-09-15T17:53:45.294Z,25.57
2022-09-15T17:56:12.074Z,25.31
2022-09-15T17:58:38.733Z,25.36
2022-09-15T18:01:05.446Z,25.46
2022-09-15T18:03:36.123Z,25.26
2022-09-15T18:06:06.707Z,25.29
2022-09-15T18:08:35.935Z,25.25
2022-09-15T18:11:04.041Z,25.12
2022-09-15T18:13:31.287Z,25.21
2022-09-15T18:16:03.071Z,25.29
2022-09-15T18:18:30.394Z,25.25
2022-09-15T18:20:58.381Z,25.17
2022-09-15T18:23:28.321Z,25.17
2022-09-15T18:25:55.168Z,25.25
2022-09-15T18:28:21.699Z,25.36
2022-09-15T18:30:50.114Z,25.19
2022-09-15T18:33:20.297Z,25.24
2022-09-15T18:35:49.341Z,25.40
2022-09-15T18:38:16.940Z,25.25
2022-09-15T18:40:49.162Z,25.43
2022-09-15T18:43:27.072Z,25.12
2022-09-15T18:46:03.626Z,25.50
2022-09-15T18:48:30.879Z,25.47
2022-09-15T18:50:57.426Z,25.23
2022-09-15T18:53:24.894Z,25.09
2022-09-15T18:55:51.736Z,25.11
2022-09-15T18:58:27.420Z,25.03
2022-09-15T19:01:02.680Z,25.08
2022-09-15T19:03:29.953Z,24.89
2022-09-15T19:06:01.812Z,24.89
2022-09-15T19:08:28.338Z,24.85
2022-09-15T19:10:59.646Z,25.12
2022-09-15T19:13:26.755Z,25.06
2022-09-15T19:15:53.666Z,24.80
2022-09-15T19:18:20.281Z,24.33
2022-09-15T19:20:47.142Z,24.80
2022-09-15T19:23:16.278Z,24.89
2022-09-15T19:25:42.910Z,24.00
2022-09-15T19:28:09.712Z,24.48
2022-09-15T19:30:36.492Z,24.88
2022-09-15T19:33:03.424Z,23.74
2022-09-15T19:35:30.028Z,24.89
2022-09-15T19:37:59.733Z,24.80
2022-09-15T19:40:26.849Z,24.58
2022-09-15T19:42:53.582Z,24.91
2022-09-15T19:45:20.330Z,24.63
2022-09-15T19:47:47.197Z,24.96
2022-09-15T19:50:13.930Z,25.06
2022-09-15T19:52:41.884Z,24.34
2022-09-15T19:55:09.882Z,25.08
2022-09-15T19:57:40.812Z,24.90
2022-09-15T20:00:08.932Z,24.58
2022-09-15T20:02:36.064Z,25.06
2022-09-15T20:07:48.160Z,25.46
2022-09-15T20:10:15.506Z,24.87
2022-09-15T20:12:42.480Z,25.38
2022-09-15T20:15:10.356Z,25.50
2022-09-15T20:17:42.082Z,25.01
2022-09-15T20:20:11.366Z,25.15
2022-09-15T20:22:38.031Z,25.09
2022-09-15T20:25:05.079Z,25.34
2022-09-15T20:27:38.919Z,24.99
2022-09-15T20:30:09.228Z,24.90
2022-09-15T20:32:35.871Z,24.86
2022-09-15T20:35:09.114Z,24.43
2022-09-15T20:37:37.660Z,24.68
2022-09-15T20:40:07.712Z,24.40
2022-09-15T20:42:34.794Z,25.09
2022-09-15T20:45:01.636Z,24.91
2022-09-15T20:47:28.703Z,25.08
2022-09-15T20:49:55.269Z,25.11
2022-09-15T20:52:32.582Z,24.86
2022-09-15T20:55:01.615Z,24.92
2022-09-15T20:57:30.191Z,24.28
2022-09-15T20:59:57.722Z,24.79
2022-09-15T21:02:24.459Z,24.59
2022-09-15T21:04:51.248Z,24.06
2022-09-15T21:07:18.068Z,24.60
2022-09-15T21:09:45.319Z,23.68
2022-09-15T21:12:15.966Z,24.53
2022-09-15T21:14:43.016Z,24.24
2022-09-15T21:17:09.667Z,23.71
2022-09-15T21:19:37.967Z,23.62
2022-09-15T21:22:04.784Z,24.14
2022-09-15T21:24:31.407Z,24.13
2022-09-15T21:27:16.446Z,24.43
2022-09-15T21:29:43.447Z,24.08
2022-09-15T21:32:10.339Z,24.36
2022-09-15T21:34:37.022Z,24.27
2022-09-15T21:37:03.844Z,24.13
2022-09-15T21:39:30.412Z,23.86
2022-09-15T21:41:57.236Z,24.32
2022-09-15T21:44:23.969Z,24.06
2022-09-15T21:46:52.790Z,23.76
2022-09-15T21:49:20.212Z,23.60
2022-09-15T21:51:46.829Z,24.29
2022-09-15T21:54:13.901Z,24.15
2022-09-15T21:56:59.536Z,24.06
2022-09-15T21:59:26.322Z,24.28
2022-09-15T22:01:55.415Z,24.33
2022-09-15T22:04:22.264Z,24.16
2022-09-15T22:06:50.257Z,23.66
2022-09-15T22:09:21.484Z,23.53
2022-09-15T22:11:48.389Z,23.54
2022-09-15T22:14:15.376Z,24.23
2022-09-15T22:16:43.024Z,23.90
2022-09-15T22:19:11.570Z,23.96
2022-09-15T22:21:41.785Z,23.70
2022-09-15T22:24:11.444Z,23.58
2022-09-15T22:26:38.609Z,23.58
2022-09-15T22:29:08.861Z,23.95
2022-09-15T22:31:36.284Z,23.91
2022-09-15T22:34:03.091Z,24.11
2022-09-15T22:36:30.961Z,23.14
2022-09-15T22:39:10.258Z,24.02
2022-09-15T22:41:39.023Z,24.20
2022-09-15T22:44:07.670Z,24.06
2022-09-15T22:46:34.882Z,24.23
2022-09-15T22:49:02.098Z,24.23
2022-09-15T22:51:29.221Z,23.51
2022-09-15T22:53:57.349Z,23.54
2022-09-15T22:56:26.124Z,23.76
2022-09-15T22:58:53.074Z,23.98
2022-09-15T23:01:23.018Z,23.50
2022-09-15T23:03:56.280Z,24.19
2022-09-15T23:06:24.687Z,24.16
2022-09-15T23:08:56.670Z,24.27
2022-09-15T23:11:24.403Z,24.23
2022-09-15T23:13:51.942Z,24.19
2022-09-15T23:16:18.760Z,24.25
2022-09-15T23:18:50.547Z,23.27
2022-09-15T23:21:17.333Z,24.23
2022-09-15T23:23:45.473Z,23.36
2022-09-15T23:26:13.557Z,24.25
2022-09-15T23:28:40.501Z,24.16
2022-09-15T23:31:08.447Z,24.14
2022-09-15T23:33:35.557Z,24.47
2022-09-15T23:36:08.767Z,24.64
2022-09-15T23:38:37.183Z,24.59
2022-09-15T23:41:04.064Z,24.70
2022-09-15T23:43:33.239Z,24.28
2022-09-15T23:46:01.186Z,24.79
2022-09-15T23:48:28.408Z,24.50
2022-09-15T23:50:55.125Z,24.64
2022-09-15T23:53:21.810Z,24.55
2022-09-15T23:55:48.481Z,24.36
2022-09-15T23:58:15.253Z,24.14
